EDT,Max TemperatureF,Mean TemperatureF,Min TemperatureF,Max Dew PointF,MeanDew PointF,Min DewpointF,Max Humidity, Mean Humidity, Min Humidity, Max Sea Level PressureIn, Mean Sea Level PressureIn, Min Sea Level PressureIn, Max VisibilityMiles, Mean VisibilityMiles, Min VisibilityMiles, Max Wind SpeedMPH, Mean Wind SpeedMPH, Max Gust SpeedMPH,PrecipitationIn, CloudCover, Events, WindDirDegrees
2013-10-1,,,,,,,,,,30.03,29.98,29.92,,,,10,4,16,0.00,0,,280
2013-10-2,,,,,,,,,,30.02,29.98,29.94,,,,14,5,22,0.00,0,,280
2013-10-3,,,,,,,,,,30.12,30.08,30.03,,,,9,1,,0.00,0,,155
2013-10-4,,,,,,,,,,30.07,30.04,29.98,,,,7,1,,0.00,3,,248
2013-10-5,,,,,,,,,,30.09,30.05,30.02,,,,10,2,17,0.00,,,111
2013-10-6,,,,,,,,,,30.09,30.05,30.01,,,,12,6,23,0.00,,,121
2013-10-7,,,,,,,,,,30.02,29.92,29.81,,,,21,8,33,0.00,,Rain,180
2013-10-8,,,,,,,,,,30.27,30.17,30.02,,,,6,2,,0.00,0,,319
2013-10-9,,,,,,,,,,30.35,30.30,30.25,,,,21,8,28,0.00,,,49
2013-10-10,,,,,,,,,,30.24,30.13,30.04,,,,14,11,24,0.00,,Rain,50
2013-10-11,,,,,,,,,,30.04,30.00,29.97,,,,17,12,29,0.00,,Rain,55
2013-10-12,,,,,,,,,,30.23,30.13,30.03,,,,20,12,30,0.00,,Rain,60
2013-10-13,,,,,,,,,,30.36,30.31,30.23,,,,22,15,28,0.00,,,65
2013-10-14,,,,,,,,,,30.35,30.30,30.26,,,,9,3,,0.00,,,69
2013-10-15,,,,,,,,,,30.27,30.19,30.12,,,,9,1,17,0.00,,,83
2013-10-16,,,,,,,,,,30.10,30.03,29.95,,,,7,2,,0.31,,,88
2013-10-17,,,,,,,,,,29.93,29.85,29.74,,,,9,5,,0.10,,,197
2013-10-18,,,,,,,,,,30.01,29.88,29.72,,,,22,12,30,0.00,,,283
2013-10-19,,,,,,,,,,30.01,29.93,29.79,,,,12,1,,0.00,,,172
2013-10-20,,,,,,,,,,30.09,29.95,29.79,,,,13,8,21,0.00,,,283
2013-10-21,,,,,,,,,,30.17,30.09,30.01,,,,13,2,21,0.00,,,196
2013-10-22,,,,,,,,,,30.00,29.87,29.78,,,,12,2,18,0.00,,,248
2013-10-23,,,,,,,,,,29.82,29.70,29.61,,,,9,3,16,0.00,,,333
2013-10-24,,,,,,,,,,30.05,29.94,29.79,,,,17,8,28,0.00,,,275
2013-10-25,,,,,,,,,,30.26,30.14,30.05,,,,13,6,20,0.00,,,288
2013-10-26,,,,,,,,,,30.25,30.12,29.94,,,,17,4,28,0.00,,,226
2013-10-27,,,,,,,,,,30.14,29.97,29.89,,,,16,8,26,0.00,,,270
2013-10-28,,,,,,,,,,30.29,30.21,30.14,,,,13,1,,0.00,,,272
2013-10-29,,,,,,,,,,30.39,30.35,30.31,,,,12,3,,0.00,,,53
2013-10-30,,,,,,,,,,30.35,30.27,30.20,,,,5,0,,0.00,,Rain,205
2013-10-31,,,,,,,,,,30.24,30.07,29.88,,,,12,3,21,0.00,,Rain,188